Time;durP1;ratioP1;P1;durP2;ratioP2;P2;SDS_P1;SDS_P2;PMS_P1;PMS_P2;Temp;Humidity;BMP_temperature;BMP_pressure;BME280_temperature;BME280_humidity;BME280_pressure;Samples;Min_cycle;Max_cycle;Signal;HPM_P1;HPM_P2
2023/04/08 04:01:42;;;;;;;6.57;2.73;;;6.90;99.90;;;;;;5418429;23;20484;-71
2023/04/08 04:04:10;;;;;;;0.50;0.10;;;6.80;99.90;;;;;;4904532;29;20446;-69
2023/04/08 04:06:38;;;;;;;0.50;0.10;;;6.80;99.90;;;;;;4907243;29;20535;-70
2023/04/08 04:09:06;;;;;;;1.30;1.30;;;6.80;99.90;;;;;;4909002;29;20444;-70
2023/04/08 04:11:35;;;;;;;0.53;0.27;;;6.80;99.90;;;;;;4906925;29;20488;-70
2023/04/08 04:14:03;;;;;;;0.70;0.53;;;6.70;99.90;;;;;;4921741;23;20585;-70
2023/04/08 04:16:31;;;;;;;0.50;0.30;;;6.70;99.90;;;;;;4880462;29;20483;-70
2023/04/08 04:19:01;;;;;;;0.80;0.73;;;6.70;99.90;;;;;;4878848;29;20454;-70
2023/04/08 04:21:31;;;;;;;0.50;0.20;;;6.70;99.90;;;;;;4879335;29;20435;-70
2023/04/08 04:23:59;;;;;;;0.50;0.10;;;6.70;99.90;;;;;;4878653;29;20478;-70
2023/04/08 04:26:27;;;;;;;1.73;1.63;;;6.70;99.90;;;;;;4878863;29;20451;-70
2023/04/08 04:28:55;;;;;;;0.50;0.10;;;6.80;99.90;;;;;;4878651;29;20450;-70
2023/04/08 04:31:25;;;;;;;0.50;0.10;;;6.80;99.90;;;;;;4878190;29;20490;-70
2023/04/08 04:33:53;;;;;;;0.50;0.10;;;6.70;99.90;;;;;;4879083;29;20477;-70
2023/04/08 04:36:22;;;;;;;0.50;0.10;;;6.70;99.90;;;;;;4883611;29;20497;-70
2023/04/08 04:38:50;;;;;;;0.50;0.10;;;6.70;99.90;;;;;;4883952;29;20475;-70
2023/04/08 04:41:20;;;;;;;0.50;0.10;;;6.70;99.90;;;;;;4881328;29;20450;-70
2023/04/08 04:43:48;;;;;;;0.50;0.10;;;6.60;99.90;;;;;;4877569;29;20566;-69
2023/04/08 04:46:16;;;;;;;0.50;0.20;;;6.60;99.90;;;;;;4880849;29;20453;-70
2023/04/08 04:48:44;;;;;;;0.50;0.10;;;6.70;99.90;;;;;;4881531;29;20446;-70
2023/04/08 04:51:12;;;;;;;0.50;0.10;;;6.60;99.90;;;;;;4881559;29;20743;-69
2023/04/08 04:53:41;;;;;;;0.50;0.10;;;6.60;99.90;;;;;;4879763;29;20450;-69
2023/04/08 04:56:09;;;;;;;0.50;0.10;;;6.60;99.90;;;;;;4878648;29;20956;-68
2023/04/08 04:58:36;;;;;;;0.50;0.10;;;6.60;99.90;;;;;;4877679;29;20450;-68
2023/04/08 05:01:04;;;;;;;0.50;0.10;;;6.60;99.90;;;;;;4876791;29;20449;-68
2023/04/08 05:03:32;;;;;;;0.50;0.10;;;6.60;99.90;;;;;;4877450;29;20458;-68
2023/04/08 05:06:00;;;;;;;0.50;0.10;;;6.60;99.90;;;;;;4880195;29;20450;-68
2023/04/08 05:08:28;;;;;;;0.50;0.30;;;6.60;99.90;;;;;;4884327;29;20935;-68
2023/04/08 05:11:00;;;;;;;0.50;0.10;;;6.70;99.90;;;;;;4884277;29;20480;-68
2023/04/08 05:13:28;;;;;;;2.20;0.50;;;6.70;99.90;;;;;;4878719;29;20500;-70
2023/04/08 05:15:56;;;;;;;0.50;0.10;;;6.60;99.90;;;;;;4878424;29;20462;-68
2023/04/08 05:18:24;;;;;;;0.50;0.10;;;6.60;99.90;;;;;;4878627;29;20455;-69
2023/04/08 05:20:52;;;;;;;0.50;0.10;;;6.60;99.90;;;;;;4878218;29;20463;-69
2023/04/08 05:23:20;;;;;;;0.50;0.10;;;6.60;99.90;;;;;;4878409;29;20882;-69
2023/04/08 05:25:47;;;;;;;0.50;0.10;;;6.60;99.90;;;;;;4880538;29;20485;-69
2023/04/08 05:28:16;;;;;;;0.50;0.10;;;6.70;99.90;;;;;;4882144;29;20457;-69
2023/04/08 05:30:49;;;;;;;0.50;0.10;;;6.70;99.90;;;;;;4879562;29;20489;-68
2023/04/08 05:33:17;;;;;;;0.50;0.10;;;6.80;99.90;;;;;;4876630;29;21056;-69
2023/04/08 05:35:45;;;;;;;0.50;0.10;;;6.80;99.90;;;;;;4879780;29;21044;-70
2023/04/08 05:38:12;;;;;;;0.50;0.10;;;6.80;99.90;;;;;;4881067;29;20552;-70
2023/04/08 05:40:40;;;;;;;0.90;0.87;;;6.90;99.90;;;;;;4886869;29;20808;-70
2023/04/08 05:43:08;;;;;;;0.50;0.10;;;6.90;99.90;;;;;;4882287;29;20449;-70
2023/04/08 05:45:37;;;;;;;0.50;0.10;;;6.90;99.90;;;;;;4883771;29;20488;-70
2023/04/08 05:48:05;;;;;;;0.50;0.10;;;6.90;99.90;;;;;;4885278;29;20469;-70
2023/04/08 05:50:35;;;;;;;0.50;0.10;;;7.00;99.90;;;;;;4885851;29;20502;-70
2023/04/08 05:53:03;;;;;;;0.50;0.10;;;7.00;99.90;;;;;;4880033;29;20541;-70
2023/04/08 05:55:30;;;;;;;0.50;0.10;;;7.10;99.90;;;;;;4892369;29;20541;-70
2023/04/08 05:57:58;;;;;;;0.50;0.10;;;7.10;99.90;;;;;;4887613;29;20458;-68
2023/04/08 06:00:26;;;;;;;0.50;0.10;;;7.20;99.90;;;;;;4886974;29;20465;-69
2023/04/08 06:02:59;;;;;;;0.50;0.10;;;7.20;99.90;;;;;;4885364;29;20510;-70
2023/04/08 06:05:27;;;;;;;0.50;0.10;;;7.20;99.90;;;;;;4882480;29;20478;-70
2023/04/08 06:07:55;;;;;;;0.50;0.10;;;7.20;99.90;;;;;;4881692;29;20453;-69
2023/04/08 06:10:23;;;;;;;0.50;0.10;;;7.20;99.90;;;;;;4882200;29;20478;-69
2023/04/08 06:12:51;;;;;;;0.50;0.10;;;7.30;99.90;;;;;;4880636;29;20501;-69
2023/04/08 06:15:19;;;;;;;0.50;0.13;;;7.30;99.90;;;;;;4883369;29;20513;-69
2023/04/08 06:17:47;;;;;;;0.50;0.10;;;7.40;99.90;;;;;;4875597;29;20462;-70
2023/04/08 06:20:17;;;;;;;0.50;0.10;;;7.50;99.90;;;;;;4881862;29;20477;-69
2023/04/08 06:22:45;;;;;;;0.50;0.10;;;7.60;99.90;;;;;;4881830;29;20472;-70
2023/04/08 06:25:12;;;;;;;0.50;0.10;;;7.60;99.90;;;;;;4881284;29;20471;-69
2023/04/08 06:27:40;;;;;;;0.50;0.10;;;7.60;99.90;;;;;;4880808;29;20454;-70
2023/04/08 06:30:09;;;;;;;0.50;0.20;;;7.70;99.90;;;;;;4880877;29;20452;-69
2023/04/08 06:32:37;;;;;;;0.50;0.10;;;7.70;99.90;;;;;;4879731;29;20545;-70
2023/04/08 06:35:07;;;;;;;1.23;1.23;;;7.80;99.90;;;;;;4880769;29;20485;-70
2023/04/08 06:37:37;;;;;;;0.57;0.40;;;7.80;99.90;;;;;;4879886;29;20453;-70
2023/04/08 06:40:06;;;;;;;0.50;0.20;;;7.80;99.90;;;;;;4879466;29;20807;-70
2023/04/08 06:42:35;;;;;;;0.50;0.10;;;7.90;99.90;;;;;;4862464;29;20447;-69
2023/04/08 06:45:03;;;;;;;2.83;2.70;;;7.90;99.90;;;;;;4865746;29;20853;-69
2023/04/08 06:47:31;;;;;;;0.60;0.10;;;7.90;99.90;;;;;;4879769;29;20455;-69
2023/04/08 06:49:59;;;;;;;0.50;0.10;;;8.00;99.90;;;;;;4879944;29;20483;-69
2023/04/08 06:52:27;;;;;;;1.13;1.13;;;8.00;99.90;;;;;;4879814;29;20450;-69
2023/04/08 06:54:56;;;;;;;0.50;0.10;;;8.00;99.90;;;;;;4880917;29;20832;-69
2023/04/08 06:57:23;;;;;;;0.50;0.10;;;7.90;99.90;;;;;;4881048;29;20540;-69
2023/04/08 06:59:52;;;;;;;0.60;0.50;;;8.00;99.90;;;;;;4883334;29;20453;-69
2023/04/08 07:02:21;;;;;;;0.50;0.10;;;8.00;99.90;;;;;;4890983;29;20446;-69
2023/04/08 07:04:49;;;;;;;0.60;0.40;;;8.20;99.90;;;;;;4890474;29;20473;-69
2023/04/08 07:07:17;;;;;;;0.50;0.10;;;8.20;99.90;;;;;;4893320;29;20470;-69
2023/04/08 07:09:45;;;;;;;0.50;0.10;;;8.30;99.90;;;;;;4897044;29;20442;-69
2023/04/08 07:12:14;;;;;;;0.83;0.30;;;8.30;99.90;;;;;;4906979;29;20453;-69
2023/04/08 07:14:42;;;;;;;0.50;0.10;;;8.40;99.90;;;;;;4903629;29;20486;-69
2023/04/08 07:17:10;;;;;;;0.60;0.50;;;8.50;99.90;;;;;;4885554;29;20474;-71
2023/04/08 07:19:38;;;;;;;0.97;0.80;;;8.50;99.90;;;;;;4888460;29;20454;-69
2023/04/08 07:22:06;;;;;;;0.50;0.10;;;8.60;99.90;;;;;;4886462;29;20458;-70
2023/04/08 07:24:34;;;;;;;0.50;0.10;;;8.70;99.90;;;;;;4886715;29;20557;-70
2023/04/08 07:27:02;;;;;;;1.03;0.87;;;8.70;99.90;;;;;;4886374;29;20477;-70
2023/04/08 07:29:31;;;;;;;0.50;0.20;;;8.80;99.90;;;;;;4886185;29;20542;-70
2023/04/08 07:31:59;;;;;;;0.60;0.10;;;8.80;99.90;;;;;;4883152;29;20450;-69
2023/04/08 07:34:26;;;;;;;0.70;0.40;;;8.40;99.90;;;;;;4881455;29;20542;-70
2023/04/08 07:36:54;;;;;;;0.70;0.70;;;8.90;99.90;;;;;;4886387;29;20499;-69
2023/04/08 07:39:22;;;;;;;0.50;0.20;;;8.90;99.90;;;;;;4885458;29;20950;-69
2023/04/08 07:41:50;;;;;;;0.50;0.10;;;8.90;99.90;;;;;;4885339;29;20965;-68
2023/04/08 07:44:18;;;;;;;0.50;0.10;;;9.00;99.90;;;;;;4885511;29;20490;-71
2023/04/08 07:46:50;;;;;;;0.70;0.47;;;9.10;99.90;;;;;;4881163;29;20568;-65
2023/04/08 07:49:18;;;;;;;0.63;0.63;;;9.10;99.90;;;;;;4884311;29;20446;-69
2023/04/08 07:51:46;;;;;;;0.50;0.20;;;9.30;99.90;;;;;;4884716;29;20462;-70
2023/04/08 07:54:16;;;;;;;5.23;4.97;;;9.30;99.90;;;;;;4882590;29;20550;-70
2023/04/08 07:56:44;;;;;;;3.63;1.27;;;9.30;99.90;;;;;;4883800;29;20450;-70
2023/04/08 07:59:12;;;;;;;2.20;1.70;;;9.20;99.90;;;;;;4880617;29;20458;-70
2023/04/08 08:01:40;;;;;;;0.50;0.30;;;9.10;99.90;;;;;;4881203;29;20450;-69
2023/04/08 08:04:09;;;;;;;1.57;1.47;;;9.10;99.90;;;;;;4882408;29;20910;-69
2023/04/08 08:06:38;;;;;;;0.60;0.20;;;9.10;99.90;;;;;;4880600;29;20486;-70
2023/04/08 08:09:06;;;;;;;0.67;0.53;;;9.00;99.90;;;;;;4878827;29;20466;-69
2023/04/08 08:11:33;;;;;;;0.50;0.10;;;9.00;99.90;;;;;;4879333;29;20530;-71
2023/04/08 08:14:03;;;;;;;0.50;0.10;;;9.00;99.90;;;;;;4873868;29;20502;-70
2023/04/08 08:16:32;;;;;;;1.90;1.80;;;9.00;99.90;;;;;;4878662;29;20538;-70
2023/04/08 08:19:00;;;;;;;0.50;0.10;;;9.00;99.90;;;;;;4877345;29;20875;-70
2023/04/08 08:21:30;;;;;;;0.50;0.10;;;9.00;99.90;;;;;;4878987;29;20493;-71
2023/04/08 08:23:58;;;;;;;0.60;0.23;;;9.10;99.90;;;;;;4877453;29;20481;-70
2023/04/08 08:26:27;;;;;;;0.70;0.50;;;9.10;99.90;;;;;;4879598;29;20461;-73
2023/04/08 08:28:55;;;;;;;0.60;0.57;;;9.10;99.90;;;;;;4881693;29;20451;-72
2023/04/08 08:31:23;;;;;;;3.10;0.80;;;;;;;;;;4880171;29;20450;-72
2023/04/08 08:33:51;;;;;;;1.13;1.13;;;8.90;99.90;;;;;;4879898;29;20523;-73
2023/04/08 08:36:20;;;;;;;0.97;0.87;;;8.90;99.90;;;;;;4880971;29;20487;-72
2023/04/08 08:38:50;;;;;;;0.50;0.20;;;;;;;;;;4894210;29;20461;-73
2023/04/08 08:41:18;;;;;;;1.60;1.50;;;8.80;99.90;;;;;;4901351;29;20452;-72
2023/04/08 08:43:46;;;;;;;0.50;0.10;;;8.70;99.90;;;;;;4898875;29;20452;-73
2023/04/08 08:46:17;;;;;;;2.60;2.47;;;8.70;99.90;;;;;;4886712;29;20477;-72
2023/04/08 08:48:45;;;;;;;0.50;0.20;;;8.80;99.90;;;;;;4880286;29;20463;-74
2023/04/08 08:51:14;;;;;;;0.50;0.20;;;;;;;;;;4881774;29;20454;-72
2023/04/08 08:53:44;;;;;;;0.50;0.10;;;8.60;99.90;;;;;;4880706;29;20573;-72
2023/04/08 08:56:13;;;;;;;1.70;1.60;;;8.60;99.90;;;;;;4881431;29;20519;-73
2023/04/08 08:58:46;;;;;;;0.50;0.10;;;8.50;99.90;;;;;;4880830;29;20938;-72
2023/04/08 09:01:31;;;;;;;1.37;1.20;;;8.60;99.90;;;;;;4884231;29;20450;-73
2023/04/08 09:04:21;;;;;;;0.50;0.10;;;8.60;99.90;;;;;;4886943;29;20478;-72
2023/04/08 09:07:04;;;;;;;0.50;0.10;;;8.60;99.90;;;;;;4878466;29;20479;-75
2023/04/08 09:09:48;;;;;;;0.60;0.40;;;8.70;99.90;;;;;;4890447;29;20454;-72
2023/04/08 09:12:18;;;;;;;0.70;0.40;;;8.80;99.90;;;;;;4889609;29;20526;-73
2023/04/08 09:14:47;;;;;;;0.50;0.10;;;;;;;;;;4889392;29;20570;-73
2023/04/08 09:17:15;;;;;;;0.60;0.50;;;8.90;99.90;;;;;;4887527;29;20459;-73
2023/04/08 09:20:08;;;;;;;2.53;2.43;;;9.00;99.90;;;;;;4887970;29;20552;-73
2023/04/08 09:22:55;;;;;;;0.60;0.30;;;9.10;99.90;;;;;;4890927;29;20529;-74
2023/04/08 09:25:24;;;;;;;0.50;0.30;;;9.10;99.90;;;;;;4888525;29;20470;-73
2023/04/08 09:27:54;;;;;;;0.50;0.20;;;9.20;99.90;;;;;;4887530;29;20454;-73
2023/04/08 09:30:24;;;;;;;0.50;0.10;;;9.30;99.90;;;;;;4885321;29;20446;-74
2023/04/08 09:32:53;;;;;;;0.60;0.10;;;9.40;99.90;;;;;;4884566;29;20449;-72
2023/04/08 09:35:21;;;;;;;0.50;0.20;;;;;;;;;;4865379;29;21018;-73
2023/04/08 09:37:50;;;;;;;0.90;0.50;;;9.50;99.90;;;;;;4866018;29;20460;-73
2023/04/08 09:40:19;;;;;;;2.10;0.87;;;9.50;99.90;;;;;;4875577;29;20460;-74
2023/04/08 09:42:49;;;;;;;1.03;0.60;;;;;;;;;;4886394;29;20469;-74
2023/04/08 09:45:19;;;;;;;0.60;0.10;;;9.50;99.90;;;;;;4887783;29;20477;-72
2023/04/08 09:48:01;;;;;;;4.73;0.87;;;9.40;99.90;;;;;;4886919;29;20459;-75
2023/04/08 09:50:36;;;;;;;0.90;0.40;;;9.50;99.90;;;;;;4887880;29;20454;-74
2023/04/08 09:53:13;;;;;;;0.60;0.57;;;9.50;99.90;;;;;;4890519;29;20458;-72
2023/04/08 09:55:42;;;;;;;0.50;0.10;;;;;;;;;;4887013;29;20486;-73
2023/04/08 09:58:17;;;;;;;0.57;0.10;;;9.60;99.90;;;;;;4886101;29;20459;-74
2023/04/08 10:00:50;;;;;;;0.97;0.97;;;9.60;99.90;;;;;;4886303;29;20497;-75
2023/04/08 10:03:26;;;;;;;0.50;0.10;;;9.70;99.90;;;;;;4883127;29;20458;-73
2023/04/08 10:05:56;;;;;;;0.60;0.47;;;;;;;;;;4867772;29;20531;-71
2023/04/08 10:08:25;;;;;;;0.57;0.10;;;9.80;99.90;;;;;;4868453;29;20457;-74
2023/04/08 10:10:55;;;;;;;0.80;0.47;;;9.90;99.90;;;;;;4871352;29;20452;-72
2023/04/08 10:13:23;;;;;;;0.60;0.10;;;10.00;99.90;;;;;;4884834;29;20465;-73
2023/04/08 10:16:19;;;;;;;0.60;0.10;;;10.10;99.90;;;;;;4888127;29;21009;-73
2023/04/08 10:18:48;;;;;;;0.63;0.40;;;10.20;99.90;;;;;;4888266;29;20455;-74
2023/04/08 10:21:34;;;;;;;0.60;0.20;;;10.30;99.90;;;;;;4888977;29;20453;-73
2023/04/08 10:24:06;;;;;;;25.30;2.67;;;10.40;99.90;;;;;;4889254;29;20468;-73
2023/04/08 10:26:35;;;;;;;1.03;0.93;;;10.50;99.90;;;;;;4877219;29;20463;-73
2023/04/08 10:29:33;;;;;;;0.60;0.30;;;10.50;99.90;;;;;;4887466;29;20458;-73
2023/04/08 10:32:02;;;;;;;0.60;0.10;;;10.40;99.90;;;;;;4886852;29;20442;-74
2023/04/08 10:34:30;;;;;;;0.70;0.50;;;10.60;99.90;;;;;;4887708;29;20475;-75
2023/04/08 10:37:02;;;;;;;0.60;0.40;;;10.50;99.90;;;;;;4888168;29;20884;-74
2023/04/08 10:39:31;;;;;;;3.67;2.50;;;10.60;99.90;;;;;;4884684;29;20459;-75
2023/04/08 10:42:01;;;;;;;1.63;0.57;;;10.60;99.90;;;;;;4877567;29;20473;-75
2023/04/08 10:44:29;;;;;;;0.80;0.50;;;10.60;99.90;;;;;;4880261;29;20483;-74
2023/04/08 10:46:57;;;;;;;21.43;2.63;;;10.60;99.90;;;;;;4886887;29;20471;-74
2023/04/08 10:49:34;;;;;;;3.73;2.03;;;10.60;99.90;;;;;;4878740;29;20475;-74
2023/04/08 10:52:07;;;;;;;2.40;1.07;;;10.60;99.90;;;;;;4890786;29;20518;-74
2023/04/08 10:54:39;;;;;;;0.60;0.20;;;10.70;99.90;;;;;;4890035;29;20474;-75
2023/04/08 10:57:07;;;;;;;1.37;0.43;;;10.70;99.90;;;;;;4892916;29;20438;-76
2023/04/08 10:59:35;;;;;;;0.90;0.80;;;10.80;99.90;;;;;;4885400;29;20472;-76
2023/04/08 11:02:03;;;;;;;1.33;1.23;;;10.70;99.90;;;;;;4884222;29;20952;-74
2023/04/08 11:04:33;;;;;;;1.37;1.07;;;10.70;99.90;;;;;;4883328;29;20474;-75
2023/04/08 11:07:06;;;;;;;0.60;0.10;;;10.70;99.90;;;;;;4883677;29;20447;-75
2023/04/08 11:09:34;;;;;;;10.07;9.33;;;11.00;99.90;;;;;;4882101;29;20458;-74
2023/04/08 11:12:02;;;;;;;0.60;0.20;;;11.00;99.90;;;;;;4880989;29;20583;-74
2023/04/08 11:14:32;;;;;;;0.60;0.10;;;11.20;99.90;;;;;;4881493;29;20502;-73
2023/04/08 11:17:00;;;;;;;1.00;0.63;;;11.20;99.90;;;;;;4881252;29;20490;-73
2023/04/08 11:19:30;;;;;;;0.87;0.80;;;11.30;99.90;;;;;;4880767;29;20460;-72
2023/04/08 11:22:00;;;;;;;0.93;0.60;;;;;;;;;;4887098;29;20535;-74
2023/04/08 11:24:28;;;;;;;0.73;0.50;;;11.10;99.90;;;;;;4884625;29;20462;-75
2023/04/08 11:26:56;;;;;;;0.60;0.10;;;11.20;99.90;;;;;;4886669;29;20496;-73
2023/04/08 11:29:24;;;;;;;0.60;0.10;;;11.30;99.90;;;;;;4872219;29;20490;-74
2023/04/08 11:31:52;;;;;;;2.93;0.77;;;11.50;99.90;;;;;;4885895;29;20480;-74
2023/04/08 11:34:24;;;;;;;3.50;2.33;;;;;;;;;;4884983;29;21258;-74
2023/04/08 11:36:53;;;;;;;0.60;0.37;;;11.60;99.90;;;;;;4882703;29;20496;-73
2023/04/08 11:39:25;;;;;;;4.20;2.20;;;11.60;99.90;;;;;;4883922;29;20463;-73
2023/04/08 11:41:54;;;;;;;0.60;0.27;;;11.50;99.90;;;;;;4877105;29;20460;-74
2023/04/08 11:44:30;;;;;;;1.07;0.37;;;11.10;99.90;;;;;;4875110;29;20863;-73
2023/04/08 11:46:58;;;;;;;8.70;1.53;;;11.10;99.90;;;;;;4882449;29;20449;-73
2023/04/08 11:49:26;;;;;;;1.03;0.93;;;11.00;99.90;;;;;;4869432;29;20469;-77
2023/04/08 11:51:55;;;;;;;1.00;0.60;;;11.00;99.90;;;;;;4883966;29;20510;-74
2023/04/08 11:54:29;;;;;;;7.97;7.40;;;10.80;99.90;;;;;;4876067;29;20557;-75
2023/04/08 11:56:57;;;;;;;0.70;0.40;;;10.80;99.90;;;;;;4880170;29;20596;-74
2023/04/08 11:59:25;;;;;;;2.53;2.33;;;10.90;99.90;;;;;;4866637;29;20457;-74
2023/04/08 12:01:56;;;;;;;2.93;2.83;;;11.00;99.90;;;;;;4885954;29;20481;-74
2023/04/08 12:04:25;;;;;;;1.57;1.40;;;11.20;99.90;;;;;;4890019;29;20474;-76
2023/04/08 12:06:53;;;;;;;2.10;0.40;;;11.00;99.90;;;;;;4883620;29;20515;-73
2023/04/08 12:09:23;;;;;;;0.60;0.10;;;11.00;99.90;;;;;;4888576;29;20446;-74
2023/04/08 12:11:52;;;;;;;0.80;0.50;;;11.00;99.90;;;;;;4883118;29;20451;-75
2023/04/08 12:14:24;;;;;;;1.80;1.70;;;11.20;99.90;;;;;;4881435;29;20478;-75
2023/04/08 12:16:54;;;;;;;9.90;2.60;;;11.20;99.90;;;;;;4888268;29;20856;-76
2023/04/08 12:19:22;;;;;;;0.60;0.10;;;11.40;99.90;;;;;;4883238;29;20452;-74
2023/04/08 12:21:50;;;;;;;0.60;0.50;;;11.50;99.90;;;;;;4889419;29;20465;-73
2023/04/08 12:24:21;;;;;;;0.80;0.43;;;11.70;99.90;;;;;;4885254;29;20553;-73
2023/04/08 12:26:49;;;;;;;0.60;0.10;;;11.70;99.90;;;;;;4888758;29;20828;-72
2023/04/08 12:29:18;;;;;;;0.60;0.43;;;11.80;99.90;;;;;;4890938;29;20516;-75
2023/04/08 12:31:46;;;;;;;0.60;0.10;;;11.60;99.90;;;;;;4891146;29;20448;-73
2023/04/08 12:34:14;;;;;;;0.80;0.60;;;11.70;99.90;;;;;;4889702;29;20476;-76
2023/04/08 12:36:43;;;;;;;3.60;3.40;;;11.70;99.90;;;;;;4885743;29;20487;-75
2023/04/08 12:39:11;;;;;;;2.90;1.73;;;11.80;99.90;;;;;;4886683;29;20485;-74
2023/04/08 12:41:39;;;;;;;0.70;0.20;;;11.70;99.90;;;;;;4885309;29;21085;-74
2023/04/08 12:44:07;;;;;;;2.70;2.47;;;12.00;99.90;;;;;;4884519;29;20487;-75
2023/04/08 12:46:36;;;;;;;0.60;0.10;;;12.00;99.90;;;;;;4884374;29;20449;-76
2023/04/08 12:49:04;;;;;;;0.60;0.10;;;12.10;99.90;;;;;;4884403;29;20960;-74
2023/04/08 12:51:33;;;;;;;0.60;0.17;;;12.30;99.90;;;;;;4885077;29;20459;-74
2023/04/08 12:54:02;;;;;;;2.03;0.50;;;12.50;99.90;;;;;;4887713;29;20472;-75
2023/04/08 12:56:30;;;;;;;1.53;0.87;;;12.50;99.90;;;;;;4879302;29;20841;-77
2023/04/08 12:58:58;;;;;;;1.63;0.93;;;12.40;99.90;;;;;;4893247;29;20504;-75
2023/04/08 13:01:27;;;;;;;6.30;1.27;;;;;;;;;;4891670;29;20456;-73
2023/04/08 13:03:56;;;;;;;0.60;0.40;;;12.50;99.90;;;;;;4880693;29;20495;-73
2023/04/08 13:06:25;;;;;;;0.90;0.57;;;12.50;99.90;;;;;;4889529;29;20454;-74
2023/04/08 13:08:53;;;;;;;0.70;0.20;;;12.50;99.90;;;;;;4885780;29;20558;-73
2023/04/08 13:11:21;;;;;;;1.10;0.67;;;12.50;99.90;;;;;;4877812;29;20483;-75
2023/04/08 13:13:49;;;;;;;7.03;0.53;;;12.50;99.90;;;;;;4881143;29;20463;-73
2023/04/08 13:16:17;;;;;;;9.00;2.13;;;12.50;99.90;;;;;;4883325;29;20503;-74
2023/04/08 13:18:45;;;;;;;4.07;0.63;;;12.50;99.90;;;;;;4879776;29;20563;-74
2023/04/08 13:21:15;;;;;;;0.73;0.63;;;12.40;99.90;;;;;;4886325;29;20463;-75
2023/04/08 13:23:45;;;;;;;1.80;1.70;;;;;;;;;;4882872;29;20499;-76
2023/04/08 13:26:13;;;;;;;3.13;2.33;;;12.40;99.90;;;;;;4882532;29;20791;-74
2023/04/08 13:28:41;;;;;;;0.60;0.10;;;12.40;99.90;;;;;;4882180;29;20456;-73
2023/04/08 13:31:24;;;;;;;0.60;0.47;;;;;;;;;;4884181;29;20459;-73
2023/04/08 13:33:52;;;;;;;0.60;0.20;;;12.30;99.90;;;;;;4888126;29;20482;-74
2023/04/08 13:36:27;;;;;;;0.70;0.60;;;12.30;99.90;;;;;;4888757;29;20491;-74
2023/04/08 13:38:55;;;;;;;0.60;0.40;;;12.30;99.90;;;;;;4875283;29;20459;-75
2023/04/08 13:41:24;;;;;;;0.60;0.10;;;12.30;99.90;;;;;;4881846;29;20554;-74
2023/04/08 13:43:52;;;;;;;1.93;1.47;;;12.10;99.90;;;;;;4882659;29;20452;-75
2023/04/08 13:46:20;;;;;;;0.60;0.20;;;12.10;99.90;;;;;;4883481;29;20452;-74
2023/04/08 13:48:48;;;;;;;0.60;0.20;;;12.10;99.90;;;;;;4882792;29;20449;-71
2023/04/08 13:51:16;;;;;;;0.70;0.57;;;12.20;99.90;;;;;;4887199;29;20481;-73
2023/04/08 13:53:45;;;;;;;4.17;0.90;;;12.40;99.90;;;;;;4885081;29;20452;-74
2023/04/08 13:56:13;;;;;;;2.97;2.10;;;12.50;99.90;;;;;;4883125;29;20458;-74
2023/04/08 13:58:41;;;;;;;0.80;0.30;;;12.40;99.90;;;;;;4872734;29;20466;-75
2023/04/08 14:01:10;;;;;;;3.33;1.60;;;12.40;99.90;;;;;;4884507;29;20460;-73
2023/04/08 14:03:38;;;;;;;0.70;0.47;;;12.30;99.90;;;;;;4882540;29;20527;-74
2023/04/08 14:06:06;;;;;;;9.93;1.80;;;13.70;99.90;;;;;;4885016;29;20946;-75
2023/04/08 14:08:34;;;;;;;0.60;0.10;;;12.10;99.90;;;;;;4884572;29;20460;-76
2023/04/08 14:11:04;;;;;;;0.60;0.10;;;12.00;99.90;;;;;;4882784;29;20452;-74
2023/04/08 14:13:32;;;;;;;0.60;0.20;;;;;;;;;;4883033;29;20461;-72
2023/04/08 14:16:01;;;;;;;0.97;0.30;;;11.80;99.90;;;;;;4883589;29;20447;-74
2023/04/08 14:18:30;;;;;;;1.77;1.03;;;11.80;99.90;;;;;;4883558;29;20497;-76
2023/04/08 14:20:59;;;;;;;0.70;0.53;;;11.80;99.90;;;;;;4885682;29;20463;-76
2023/04/08 14:23:27;;;;;;;0.67;0.43;;;11.70;99.90;;;;;;4882076;29;20496;-71
2023/04/08 14:25:55;;;;;;;0.60;0.10;;;11.60;99.90;;;;;;4877826;29;20501;-72
2023/04/08 14:28:24;;;;;;;0.60;0.10;;;11.70;99.90;;;;;;4880970;29;21081;-73
2023/04/08 14:30:55;;;;;;;0.60;0.10;;;11.80;99.90;;;;;;4879809;29;20472;-73
2023/04/08 14:33:23;;;;;;;0.60;0.10;;;11.80;99.90;;;;;;4881822;29;20452;-74
2023/04/08 14:35:52;;;;;;;0.60;0.17;;;11.80;99.90;;;;;;4882657;29;20489;-73
2023/04/08 14:38:21;;;;;;;0.70;0.40;;;11.80;99.90;;;;;;4882155;29;20515;-74
2023/04/08 14:40:49;;;;;;;0.60;0.30;;;11.90;99.90;;;;;;4881391;29;20458;-72
2023/04/08 14:43:17;;;;;;;0.60;0.10;;;12.00;99.90;;;;;;4881896;29;20452;-72
2023/04/08 14:45:47;;;;;;;0.67;0.43;;;12.00;99.90;;;;;;4885901;29;20474;-76
2023/04/08 14:48:15;;;;;;;0.60;0.10;;;12.00;99.90;;;;;;4886294;29;20470;-75
2023/04/08 14:50:43;;;;;;;1.43;1.33;;;12.10;99.90;;;;;;4882568;29;20454;-73
2023/04/08 14:53:11;;;;;;;0.93;0.67;;;12.10;99.90;;;;;;4881503;29;20448;-75
2023/04/08 14:55:39;;;;;;;0.60;0.47;;;12.20;99.90;;;;;;4881431;29;20465;-73
2023/04/08 14:58:06;;;;;;;1.90;0.97;;;12.20;99.90;;;;;;4865232;29;20916;-73
2023/04/08 15:00:34;;;;;;;0.60;0.20;;;12.10;99.90;;;;;;4881675;29;20455;-74
2023/04/08 15:03:04;;;;;;;0.60;0.40;;;12.20;99.90;;;;;;4888782;29;20449;-73
2023/04/08 15:05:33;;;;;;;0.90;0.77;;;;;;;;;;4892601;29;20501;-74
2023/04/08 15:08:15;;;;;;;0.80;0.70;;;;;;;;;;4889117;29;20456;-74
2023/04/08 15:10:43;;;;;;;1.43;1.07;;;12.20;99.90;;;;;;4887336;29;20460;-73
2023/04/08 15:13:13;;;;;;;0.60;0.10;;;12.20;99.90;;;;;;4884029;29;20467;-73
2023/04/08 15:15:41;;;;;;;0.90;0.60;;;12.40;99.90;;;;;;4882094;29;20481;-73
2023/04/08 15:18:13;;;;;;;0.60;0.20;;;12.70;99.90;;;;;;4874234;29;20520;-74
2023/04/08 15:20:41;;;;;;;0.60;0.10;;;12.70;99.90;;;;;;4884518;29;20455;-75
2023/04/08 15:23:10;;;;;;;0.70;0.47;;;;;;;;;;4886338;29;20518;-74
2023/04/08 15:25:38;;;;;;;0.60;0.40;;;13.20;99.90;;;;;;4884997;29;20490;-74
2023/04/08 15:28:06;;;;;;;2.90;0.33;;;13.40;99.90;;;;;;4874119;29;20482;-73
2023/04/08 15:30:35;;;;;;;0.60;0.20;;;13.80;99.90;;;;;;4888985;29;20872;-74
2023/04/08 15:33:04;;;;;;;0.60;0.10;;;14.00;99.90;;;;;;4890878;29;20455;-73
2023/04/08 15:35:33;;;;;;;0.60;0.10;;;14.10;99.90;;;;;;4890815;29;20999;-73
2023/04/08 15:38:01;;;;;;;1.20;0.70;;;14.10;99.90;;;;;;4889043;29;20848;-72
2023/04/08 15:40:32;;;;;;;0.70;0.37;;;13.90;99.90;;;;;;4882076;29;20461;-73
2023/04/08 15:43:00;;;;;;;1.07;0.40;;;13.80;99.90;;;;;;4892711;29;20458;-75
2023/04/08 15:45:28;;;;;;;0.80;0.33;;;13.70;99.90;;;;;;4888030;29;20470;-71
2023/04/08 15:47:59;;;;;;;0.60;0.20;;;13.60;99.90;;;;;;4891180;29;20438;-74
2023/04/08 15:50:28;;;;;;;0.60;0.10;;;13.50;99.90;;;;;;4892398;29;20467;-74
2023/04/08 15:52:58;;;;;;;0.60;0.10;;;13.30;99.90;;;;;;4894101;29;20518;-73
2023/04/08 15:55:26;;;;;;;0.90;0.80;;;13.20;99.90;;;;;;4892285;29;20473;-72
2023/04/08 15:57:55;;;;;;;4.87;4.47;;;;;;;;;;4892127;29;20551;-74
2023/04/08 16:00:23;;;;;;;0.60;0.10;;;13.00;99.90;;;;;;4891434;29;20463;-74
2023/04/08 16:02:51;;;;;;;3.37;1.27;;;12.80;99.90;;;;;;4890657;29;20460;-75
2023/04/08 16:05:20;;;;;;;0.60;0.20;;;12.70;99.90;;;;;;4888934;29;20486;-73
2023/04/08 16:07:48;;;;;;;0.90;0.50;;;12.70;99.90;;;;;;4889568;29;20478;-73
2023/04/08 16:10:17;;;;;;;0.60;0.20;;;;;;;;;;4891121;29;20462;-74
2023/04/08 16:12:46;;;;;;;0.70;0.30;;;12.60;99.90;;;;;;4888981;29;20466;-74
2023/04/08 16:15:14;;;;;;;0.60;0.10;;;12.50;99.90;;;;;;4903544;23;20588;-71
2023/04/08 16:17:41;;;;;;;0.70;0.60;;;12.50;99.90;;;;;;4904505;29;20887;-72
2023/04/08 16:20:11;;;;;;;2.30;2.13;;;12.40;99.90;;;;;;4898448;29;20462;-71
2023/04/08 16:22:38;;;;;;;0.60;0.10;;;12.40;99.90;;;;;;4900746;29;20849;-70
2023/04/08 16:25:07;;;;;;;0.60;0.30;;;12.40;99.90;;;;;;4898526;29;20580;-72
2023/04/08 16:27:37;;;;;;;0.60;0.10;;;12.40;99.90;;;;;;4890501;29;20509;-71
2023/04/08 16:30:06;;;;;;;0.60;0.10;;;12.40;99.90;;;;;;4897950;29;20549;-71
2023/04/08 16:32:34;;;;;;;0.83;0.83;;;12.20;99.90;;;;;;4898947;29;20460;-73
2023/04/08 16:35:02;;;;;;;0.73;0.60;;;12.30;99.90;;;;;;4899823;29;20738;-73
2023/04/08 16:37:30;;;;;;;1.17;0.97;;;12.30;99.90;;;;;;4900048;29;20460;-75
2023/04/08 16:39:57;;;;;;;1.50;1.40;;;12.30;99.90;;;;;;4898709;29;20471;-73
2023/04/08 16:42:25;;;;;;;0.60;0.43;;;12.20;99.90;;;;;;4903318;29;20475;-72
2023/04/08 16:44:58;;;;;;;0.60;0.10;;;12.20;99.90;;;;;;4906548;29;20454;-72
2023/04/08 16:47:26;;;;;;;0.60;0.20;;;12.20;99.90;;;;;;4897066;29;20856;-71
2023/04/08 16:49:54;;;;;;;0.60;0.20;;;12.20;99.90;;;;;;4894662;29;20456;-73
2023/04/08 16:52:22;;;;;;;0.70;0.63;;;12.10;99.90;;;;;;4895621;29;20898;-72
2023/04/08 16:54:53;;;;;;;1.23;0.70;;;11.90;99.90;;;;;;4896208;29;20499;-72
2023/04/08 16:57:21;;;;;;;0.60;0.27;;;11.90;99.90;;;;;;4897793;29;20482;-73
2023/04/08 16:59:49;;;;;;;0.60;0.13;;;11.90;99.90;;;;;;4883416;29;20489;-73
2023/04/08 17:02:18;;;;;;;0.60;0.10;;;11.90;99.90;;;;;;4891056;29;20454;-72
2023/04/08 17:04:49;;;;;;;0.60;0.20;;;12.00;99.90;;;;;;4894469;29;21070;-70
2023/04/08 17:07:18;;;;;;;0.60;0.10;;;12.00;99.90;;;;;;4894089;29;20471;-71
2023/04/08 17:09:50;;;;;;;0.60;0.10;;;12.00;99.90;;;;;;4896781;29;20465;-72